sensor_id;sensor_type;location;lat;lon;timestamp;temperature;humidity
32187;DHT22;18686;53.084;8.872;2023-01-13T00:01:06;9.50;99.90
32187;DHT22;18686;53.084;8.872;2023-01-13T00:03:34;9.40;99.90
32187;DHT22;18686;53.084;8.872;2023-01-13T00:06:03;9.30;99.90
32187;DHT22;18686;53.084;8.872;2023-01-13T00:08:32;9.30;99.90
32187;DHT22;18686;53.084;8.872;2023-01-13T00:11:01;9.20;99.90
32187;DHT22;18686;53.084;8.872;2023-01-13T00:13:31;9.20;99.90
32187;DHT22;18686;53.084;8.872;2023-01-13T00:16:03;9.10;99.90
32187;DHT22;18686;53.084;8.872;2023-01-13T00:18:32;9.10;99.90
32187;DHT22;18686;53.084;8.872;2023-01-13T00:21:04;9.00;99.90
32187;DHT22;18686;53.084;8.872;2023-01-13T00:23:34;9.00;99.90
32187;DHT22;18686;53.084;8.872;2023-01-13T00:26:05;9.00;99.90
32187;DHT22;18686;53.084;8.872;2023-01-13T00:28:35;8.90;99.90
32187;DHT22;18686;53.084;8.872;2023-01-13T00:31:04;8.90;99.90
32187;DHT22;18686;53.084;8.872;2023-01-13T00:33:33;8.90;99.90
32187;DHT22;18686;53.084;8.872;2023-01-13T00:36:02;8.90;99.90
32187;DHT22;18686;53.084;8.872;2023-01-13T00:38:33;8.90;99.90
32187;DHT22;18686;53.084;8.872;2023-01-13T00:41:04;8.90;99.90
32187;DHT22;18686;53.084;8.872;2023-01-13T00:43:35;9.00;99.90
32187;DHT22;18686;53.084;8.872;2023-01-13T00:46:04;9.00;99.90
32187;DHT22;18686;53.084;8.872;2023-01-13T00:48:33;9.00;99.90
32187;DHT22;18686;53.084;8.872;2023-01-13T00:51:03;9.00;99.90
32187;DHT22;18686;53.084;8.872;2023-01-13T00:53:34;9.00;99.90
32187;DHT22;18686;53.084;8.872;2023-01-13T00:56:05;9.00;99.90
32187;DHT22;18686;53.084;8.872;2023-01-13T00:58:35;9.00;99.90
32187;DHT22;18686;53.084;8.872;2023-01-13T01:01:05;9.00;99.90
32187;DHT22;18686;53.084;8.872;2023-01-13T01:03:34;9.00;99.90
32187;DHT22;18686;53.084;8.872;2023-01-13T01:06:04;9.00;99.90
32187;DHT22;18686;53.084;8.872;2023-01-13T01:08:33;9.00;99.90
32187;DHT22;18686;53.084;8.872;2023-01-13T01:11:02;8.90;99.90
32187;DHT22;18686;53.084;8.872;2023-01-13T01:13:30;8.80;99.90
32187;DHT22;18686;53.084;8.872;2023-01-13T01:16:03;8.70;99.90
32187;DHT22;18686;53.084;8.872;2023-01-13T01:18:33;8.60;99.90
32187;DHT22;18686;53.084;8.872;2023-01-13T01:21:01;8.60;99.90
32187;DHT22;18686;53.084;8.872;2023-01-13T01:23:30;8.50;99.90
32187;DHT22;18686;53.084;8.872;2023-01-13T01:25:59;8.40;99.90
32187;DHT22;18686;53.084;8.872;2023-01-13T01:28:28;8.30;99.90
32187;DHT22;18686;53.084;8.872;2023-01-13T01:30:57;8.30;99.90
32187;DHT22;18686;53.084;8.872;2023-01-13T01:33:27;8.20;99.90
32187;DHT22;18686;53.084;8.872;2023-01-13T01:35:55;8.10;99.90
32187;DHT22;18686;53.084;8.872;2023-01-13T01:38:23;8.00;99.90
32187;DHT22;18686;53.084;8.872;2023-01-13T01:40:52;8.00;99.90
32187;DHT22;18686;53.084;8.872;2023-01-13T01:43:22;7.90;99.90
32187;DHT22;18686;53.084;8.872;2023-01-13T01:46:07;7.80;99.90
32187;DHT22;18686;53.084;8.872;2023-01-13T01:48:39;7.70;99.90
32187;DHT22;18686;53.084;8.872;2023-01-13T01:51:11;7.60;99.90
32187;DHT22;18686;53.084;8.872;2023-01-13T01:53:39;7.60;99.90
32187;DHT22;18686;53.084;8.872;2023-01-13T01:56:09;7.50;99.90
32187;DHT22;18686;53.084;8.872;2023-01-13T01:58:41;7.50;99.90
32187;DHT22;18686;53.084;8.872;2023-01-13T02:01:11;7.50;99.90
32187;DHT22;18686;53.084;8.872;2023-01-13T02:03:44;7.40;99.90
32187;DHT22;18686;53.084;8.872;2023-01-13T02:06:12;7.40;99.90
32187;DHT22;18686;53.084;8.872;2023-01-13T02:08:41;7.30;99.90
32187;DHT22;18686;53.084;8.872;2023-01-13T02:11:26;7.30;99.90
32187;DHT22;18686;53.084;8.872;2023-01-13T02:14:09;7.30;99.90
32187;DHT22;18686;53.084;8.872;2023-01-13T02:16:43;7.20;99.90
32187;DHT22;18686;53.084;8.872;2023-01-13T02:19:37;7.20;99.90
32187;DHT22;18686;53.084;8.872;2023-01-13T02:22:32;7.10;99.90
32187;DHT22;18686;53.084;8.872;2023-01-13T02:25:20;7.10;99.90
32187;DHT22;18686;53.084;8.872;2023-01-13T02:27:58;7.10;99.90
32187;DHT22;18686;53.084;8.872;2023-01-13T02:30:40;7.10;99.90
32187;DHT22;18686;53.084;8.872;2023-01-13T02:33:43;7.00;99.90
32187;DHT22;18686;53.084;8.872;2023-01-13T02:36:22;6.90;99.90
32187;DHT22;18686;53.084;8.872;2023-01-13T02:38:55;6.90;99.90
32187;DHT22;18686;53.084;8.872;2023-01-13T02:41:28;6.90;99.90
32187;DHT22;18686;53.084;8.872;2023-01-13T02:44:20;6.90;99.90
32187;DHT22;18686;53.084;8.872;2023-01-13T02:46:55;6.80;99.90
32187;DHT22;18686;53.084;8.872;2023-01-13T02:49:31;6.80;99.90
32187;DHT22;18686;53.084;8.872;2023-01-13T02:52:06;6.80;99.90
32187;DHT22;18686;53.084;8.872;2023-01-13T02:54:37;6.80;99.90
32187;DHT22;18686;53.084;8.872;2023-01-13T02:57:08;6.80;99.90
32187;DHT22;18686;53.084;8.872;2023-01-13T02:59:38;6.80;99.90
32187;DHT22;18686;53.084;8.872;2023-01-13T03:02:12;6.90;99.90
32187;DHT22;18686;53.084;8.872;2023-01-13T03:04:51;6.90;99.90
32187;DHT22;18686;53.084;8.872;2023-01-13T03:07:44;7.00;99.90
32187;DHT22;18686;53.084;8.872;2023-01-13T03:10:26;7.00;99.90
32187;DHT22;18686;53.084;8.872;2023-01-13T03:13:04;7.00;99.90
32187;DHT22;18686;53.084;8.872;2023-01-13T03:15:41;7.00;99.90
32187;DHT22;18686;53.084;8.872;2023-01-13T03:18:20;7.00;99.90
32187;DHT22;18686;53.084;8.872;2023-01-13T03:20:57;6.90;99.90
32187;DHT22;18686;53.084;8.872;2023-01-13T03:23:33;6.90;99.90
32187;DHT22;18686;53.084;8.872;2023-01-13T03:26:06;6.90;99.90
32187;DHT22;18686;53.084;8.872;2023-01-13T03:28:39;6.90;99.90
32187;DHT22;18686;53.084;8.872;2023-01-13T03:31:13;6.90;99.90
32187;DHT22;18686;53.084;8.872;2023-01-13T03:33:47;6.90;99.90
32187;DHT22;18686;53.084;8.872;2023-01-13T03:36:21;6.90;99.90
32187;DHT22;18686;53.084;8.872;2023-01-13T03:38:53;6.90;99.90
32187;DHT22;18686;53.084;8.872;2023-01-13T03:41:27;6.90;99.90
32187;DHT22;18686;53.084;8.872;2023-01-13T03:44:02;6.90;99.90
32187;DHT22;18686;53.084;8.872;2023-01-13T03:47:05;6.80;99.90
32187;DHT22;18686;53.084;8.872;2023-01-13T03:49:40;6.80;99.90
32187;DHT22;18686;53.084;8.872;2023-01-13T03:52:14;6.80;99.90
32187;DHT22;18686;53.084;8.872;2023-01-13T03:54:49;6.70;99.90
32187;DHT22;18686;53.084;8.872;2023-01-13T03:57:22;6.70;99.90
32187;DHT22;18686;53.084;8.872;2023-01-13T03:59:53;6.70;99.90
32187;DHT22;18686;53.084;8.872;2023-01-13T04:02:31;6.70;99.90
32187;DHT22;18686;53.084;8.872;2023-01-13T04:05:06;6.70;99.90
32187;DHT22;18686;53.084;8.872;2023-01-13T04:07:49;6.60;99.90
32187;DHT22;18686;53.084;8.872;2023-01-13T04:10:22;6.60;99.90
32187;DHT22;18686;53.084;8.872;2023-01-13T04:12:54;6.50;99.90
32187;DHT22;18686;53.084;8.872;2023-01-13T04:15:33;6.50;99.90
32187;DHT22;18686;53.084;8.872;2023-01-13T04:18:09;6.60;99.90
32187;DHT22;18686;53.084;8.872;2023-01-13T04:20:40;6.60;99.90
32187;DHT22;18686;53.084;8.872;2023-01-13T04:23:09;6.70;99.90
32187;DHT22;18686;53.084;8.872;2023-01-13T04:25:39;6.80;99.90
32187;DHT22;18686;53.084;8.872;2023-01-13T04:28:08;6.90;99.90
32187;DHT22;18686;53.084;8.872;2023-01-13T04:30:37;6.90;99.90
32187;DHT22;18686;53.084;8.872;2023-01-13T04:33:06;7.00;99.90
32187;DHT22;18686;53.084;8.872;2023-01-13T04:35:35;7.00;99.90
32187;DHT22;18686;53.084;8.872;2023-01-13T04:38:08;6.90;99.90
32187;DHT22;18686;53.084;8.872;2023-01-13T04:40:36;7.00;99.90
32187;DHT22;18686;53.084;8.872;2023-01-13T04:43:05;7.00;99.90
32187;DHT22;18686;53.084;8.872;2023-01-13T04:45:33;7.10;99.90
32187;DHT22;18686;53.084;8.872;2023-01-13T04:48:02;7.10;99.90
32187;DHT22;18686;53.084;8.872;2023-01-13T04:50:30;7.10;99.90
32187;DHT22;18686;53.084;8.872;2023-01-13T04:52:59;7.10;99.90
32187;DHT22;18686;53.084;8.872;2023-01-13T04:55:29;7.00;99.90
32187;DHT22;18686;53.084;8.872;2023-01-13T04:58:01;7.00;99.90
32187;DHT22;18686;53.084;8.872;2023-01-13T05:00:30;7.00;99.90
32187;DHT22;18686;53.084;8.872;2023-01-13T05:02:58;7.00;99.90
32187;DHT22;18686;53.084;8.872;2023-01-13T05:05:27;6.90;99.90
32187;DHT22;18686;53.084;8.872;2023-01-13T05:07:56;6.90;99.90
32187;DHT22;18686;53.084;8.872;2023-01-13T05:10:24;6.90;99.90
32187;DHT22;18686;53.084;8.872;2023-01-13T05:12:54;6.90;99.90
32187;DHT22;18686;53.084;8.872;2023-01-13T05:15:41;6.90;99.90
32187;DHT22;18686;53.084;8.872;2023-01-13T05:18:28;6.80;99.90
32187;DHT22;18686;53.084;8.872;2023-01-13T05:20:57;6.80;99.90
32187;DHT22;18686;53.084;8.872;2023-01-13T05:23:26;7.20;99.90
32187;DHT22;18686;53.084;8.872;2023-01-13T05:26:12;7.40;99.90
32187;DHT22;18686;53.084;8.872;2023-01-13T05:28:42;7.50;99.90
32187;DHT22;18686;53.084;8.872;2023-01-13T05:31:10;7.60;99.90
32187;DHT22;18686;53.084;8.872;2023-01-13T05:33:40;7.50;99.90
32187;DHT22;18686;53.084;8.872;2023-01-13T05:36:09;7.40;99.90
32187;DHT22;18686;53.084;8.872;2023-01-13T05:38:38;7.30;99.90
32187;DHT22;18686;53.084;8.872;2023-01-13T05:41:07;7.30;99.90
32187;DHT22;18686;53.084;8.872;2023-01-13T05:43:53;7.20;99.90
32187;DHT22;18686;53.084;8.872;2023-01-13T05:46:22;7.20;99.90
32187;DHT22;18686;53.084;8.872;2023-01-13T05:48:50;7.10;99.90
32187;DHT22;18686;53.084;8.872;2023-01-13T05:51:18;7.10;99.90
32187;DHT22;18686;53.084;8.872;2023-01-13T05:53:52;7.00;99.90
32187;DHT22;18686;53.084;8.872;2023-01-13T05:56:20;7.00;99.90
32187;DHT22;18686;53.084;8.872;2023-01-13T05:58:48;7.00;99.90
32187;DHT22;18686;53.084;8.872;2023-01-13T06:01:18;7.10;99.90
32187;DHT22;18686;53.084;8.872;2023-01-13T06:03:46;7.20;99.90
32187;DHT22;18686;53.084;8.872;2023-01-13T06:06:14;7.30;99.90
32187;DHT22;18686;53.084;8.872;2023-01-13T06:08:43;7.30;99.90
32187;DHT22;18686;53.084;8.872;2023-01-13T06:11:11;7.40;99.90
32187;DHT22;18686;53.084;8.872;2023-01-13T06:13:39;7.30;99.90
32187;DHT22;18686;53.084;8.872;2023-01-13T06:16:08;7.30;99.90
32187;DHT22;18686;53.084;8.872;2023-01-13T06:18:38;7.30;99.90
32187;DHT22;18686;53.084;8.872;2023-01-13T06:21:07;7.40;99.90
32187;DHT22;18686;53.084;8.872;2023-01-13T06:23:35;7.40;99.90
32187;DHT22;18686;53.084;8.872;2023-01-13T06:26:09;7.40;99.90
32187;DHT22;18686;53.084;8.872;2023-01-13T06:28:39;7.50;99.90
32187;DHT22;18686;53.084;8.872;2023-01-13T06:31:08;7.50;99.90
32187;DHT22;18686;53.084;8.872;2023-01-13T06:33:41;7.50;99.90
32187;DHT22;18686;53.084;8.872;2023-01-13T06:36:13;7.60;99.90
32187;DHT22;18686;53.084;8.872;2023-01-13T06:38:46;7.60;99.90
32187;DHT22;18686;53.084;8.872;2023-01-13T06:41:16;7.50;99.90
32187;DHT22;18686;53.084;8.872;2023-01-13T06:44:05;7.40;99.90
32187;DHT22;18686;53.084;8.872;2023-01-13T06:46:32;7.50;99.90
32187;DHT22;18686;53.084;8.872;2023-01-13T06:49:03;7.50;99.90
32187;DHT22;18686;53.084;8.872;2023-01-13T06:51:31;7.50;99.90
32187;DHT22;18686;53.084;8.872;2023-01-13T06:53:59;7.50;99.90
32187;DHT22;18686;53.084;8.872;2023-01-13T06:56:27;7.50;99.90
32187;DHT22;18686;53.084;8.872;2023-01-13T06:58:56;7.50;99.90
32187;DHT22;18686;53.084;8.872;2023-01-13T07:01:24;7.50;99.90
32187;DHT22;18686;53.084;8.872;2023-01-13T07:03:52;7.40;99.90
32187;DHT22;18686;53.084;8.872;2023-01-13T07:06:22;7.40;99.90
32187;DHT22;18686;53.084;8.872;2023-01-13T07:08:50;7.30;99.90
32187;DHT22;18686;53.084;8.872;2023-01-13T07:11:18;7.20;99.90
32187;DHT22;18686;53.084;8.872;2023-01-13T07:13:46;7.20;99.90
32187;DHT22;18686;53.084;8.872;2023-01-13T07:16:32;7.10;99.90
32187;DHT22;18686;53.084;8.872;2023-01-13T07:19:01;7.10;99.90
32187;DHT22;18686;53.084;8.872;2023-01-13T07:21:30;7.10;99.90
32187;DHT22;18686;53.084;8.872;2023-01-13T07:23:59;7.00;99.90
32187;DHT22;18686;53.084;8.872;2023-01-13T07:26:27;6.90;99.90
32187;DHT22;18686;53.084;8.872;2023-01-13T07:28:56;7.00;99.90
32187;DHT22;18686;53.084;8.872;2023-01-13T07:31:25;7.00;99.90
32187;DHT22;18686;53.084;8.872;2023-01-13T07:33:53;6.90;99.90
32187;DHT22;18686;53.084;8.872;2023-01-13T07:36:21;6.90;99.90
32187;DHT22;18686;53.084;8.872;2023-01-13T07:38:51;7.00;99.90
32187;DHT22;18686;53.084;8.872;2023-01-13T07:41:20;7.00;99.90
32187;DHT22;18686;53.084;8.872;2023-01-13T07:44:15;6.90;99.90
32187;DHT22;18686;53.084;8.872;2023-01-13T07:46:43;6.80;99.90
32187;DHT22;18686;53.084;8.872;2023-01-13T07:49:12;6.80;99.90
32187;DHT22;18686;53.084;8.872;2023-01-13T07:51:40;6.80;99.90
32187;DHT22;18686;53.084;8.872;2023-01-13T07:54:10;6.80;99.90
32187;DHT22;18686;53.084;8.872;2023-01-13T07:56:38;6.90;99.90
32187;DHT22;18686;53.084;8.872;2023-01-13T07:59:06;7.00;99.90
32187;DHT22;18686;53.084;8.872;2023-01-13T08:01:34;7.00;99.90
32187;DHT22;18686;53.084;8.872;2023-01-13T08:04:03;7.00;99.90
32187;DHT22;18686;53.084;8.872;2023-01-13T08:06:31;7.10;99.90
32187;DHT22;18686;53.084;8.872;2023-01-13T08:09:00;7.20;99.90
32187;DHT22;18686;53.084;8.872;2023-01-13T08:11:29;7.20;99.90
32187;DHT22;18686;53.084;8.872;2023-01-13T08:13:57;7.30;99.90
32187;DHT22;18686;53.084;8.872;2023-01-13T08:16:26;7.30;99.90
32187;DHT22;18686;53.084;8.872;2023-01-13T08:18:54;7.40;99.90
32187;DHT22;18686;53.084;8.872;2023-01-13T08:21:22;7.40;99.90
32187;DHT22;18686;53.084;8.872;2023-01-13T08:23:51;7.50;99.90
32187;DHT22;18686;53.084;8.872;2023-01-13T08:26:19;7.50;99.90
32187;DHT22;18686;53.084;8.872;2023-01-13T08:28:49;7.50;99.90
32187;DHT22;18686;53.084;8.872;2023-01-13T08:31:18;7.50;99.90
32187;DHT22;18686;53.084;8.872;2023-01-13T08:33:46;7.50;99.90
32187;DHT22;18686;53.084;8.872;2023-01-13T08:36:15;7.50;99.90
32187;DHT22;18686;53.084;8.872;2023-01-13T08:38:44;7.60;99.90
32187;DHT22;18686;53.084;8.872;2023-01-13T08:41:15;7.60;99.90
32187;DHT22;18686;53.084;8.872;2023-01-13T08:44:05;7.70;99.90
32187;DHT22;18686;53.084;8.872;2023-01-13T08:46:35;7.80;99.90
32187;DHT22;18686;53.084;8.872;2023-01-13T08:49:03;7.80;99.90
32187;DHT22;18686;53.084;8.872;2023-01-13T08:51:32;7.80;99.90
32187;DHT22;18686;53.084;8.872;2023-01-13T08:54:00;7.80;99.90
32187;DHT22;18686;53.084;8.872;2023-01-13T08:56:29;7.90;99.90
32187;DHT22;18686;53.084;8.872;2023-01-13T08:59:01;8.10;99.90
32187;DHT22;18686;53.084;8.872;2023-01-13T09:01:31;8.30;99.90
32187;DHT22;18686;53.084;8.872;2023-01-13T09:04:00;8.40;99.90
32187;DHT22;18686;53.084;8.872;2023-01-13T09:06:28;8.60;99.90
32187;DHT22;18686;53.084;8.872;2023-01-13T09:08:57;8.50;99.90
32187;DHT22;18686;53.084;8.872;2023-01-13T09:11:30;8.60;99.90
32187;DHT22;18686;53.084;8.872;2023-01-13T09:14:17;8.60;99.90
32187;DHT22;18686;53.084;8.872;2023-01-13T09:16:47;8.60;99.90
32187;DHT22;18686;53.084;8.872;2023-01-13T09:19:15;8.60;99.90
32187;DHT22;18686;53.084;8.872;2023-01-13T09:21:44;8.60;99.90
32187;DHT22;18686;53.084;8.872;2023-01-13T09:24:12;8.50;99.90
32187;DHT22;18686;53.084;8.872;2023-01-13T09:26:40;8.50;99.90
32187;DHT22;18686;53.084;8.872;2023-01-13T09:29:09;8.40;99.90
32187;DHT22;18686;53.084;8.872;2023-01-13T09:31:37;8.40;99.90
32187;DHT22;18686;53.084;8.872;2023-01-13T09:34:13;8.30;99.90
32187;DHT22;18686;53.084;8.872;2023-01-13T09:37:00;8.40;99.90
32187;DHT22;18686;53.084;8.872;2023-01-13T09:39:28;8.30;99.90
32187;DHT22;18686;53.084;8.872;2023-01-13T09:42:03;8.30;99.90
32187;DHT22;18686;53.084;8.872;2023-01-13T09:44:55;8.40;99.90
32187;DHT22;18686;53.084;8.872;2023-01-13T09:47:30;8.40;99.90
32187;DHT22;18686;53.084;8.872;2023-01-13T09:50:08;8.50;99.90
32187;DHT22;18686;53.084;8.872;2023-01-13T09:52:45;8.50;99.90
32187;DHT22;18686;53.084;8.872;2023-01-13T09:55:16;8.50;99.90
32187;DHT22;18686;53.084;8.872;2023-01-13T09:57:45;8.50;99.90
32187;DHT22;18686;53.084;8.872;2023-01-13T10:00:19;8.50;99.90
32187;DHT22;18686;53.084;8.872;2023-01-13T10:03:03;8.50;99.90
32187;DHT22;18686;53.084;8.872;2023-01-13T10:05:38;8.50;99.90
32187;DHT22;18686;53.084;8.872;2023-01-13T10:08:11;8.50;99.90
32187;DHT22;18686;53.084;8.872;2023-01-13T10:10:44;8.60;99.90
32187;DHT22;18686;53.084;8.872;2023-01-13T10:13:19;8.60;99.90
32187;DHT22;18686;53.084;8.872;2023-01-13T10:15:52;8.70;99.90
32187;DHT22;18686;53.084;8.872;2023-01-13T10:18:26;8.70;99.90
32187;DHT22;18686;53.084;8.872;2023-01-13T10:21:02;8.80;99.90
32187;DHT22;18686;53.084;8.872;2023-01-13T10:23:41;8.80;99.90
32187;DHT22;18686;53.084;8.872;2023-01-13T10:29:19;9.00;99.90
32187;DHT22;18686;53.084;8.872;2023-01-13T10:31:48;9.00;99.90
32187;DHT22;18686;53.084;8.872;2023-01-13T10:34:16;8.80;99.90
32187;DHT22;18686;53.084;8.872;2023-01-13T10:37:00;8.60;99.90
32187;DHT22;18686;53.084;8.872;2023-01-13T10:39:39;8.40;99.90
32187;DHT22;18686;53.084;8.872;2023-01-13T10:42:13;8.30;99.90
32187;DHT22;18686;53.084;8.872;2023-01-13T10:44:49;8.10;99.90
32187;DHT22;18686;53.084;8.872;2023-01-13T10:47:23;7.90;99.90
32187;DHT22;18686;53.084;8.872;2023-01-13T10:50:20;7.80;99.90
32187;DHT22;18686;53.084;8.872;2023-01-13T10:53:00;7.70;99.90
32187;DHT22;18686;53.084;8.872;2023-01-13T10:55:31;7.70;99.90
32187;DHT22;18686;53.084;8.872;2023-01-13T10:58:15;7.70;99.90
32187;DHT22;18686;53.084;8.872;2023-01-13T11:00:45;7.70;99.90
32187;DHT22;18686;53.084;8.872;2023-01-13T11:03:19;7.80;99.90
32187;DHT22;18686;53.084;8.872;2023-01-13T11:05:51;7.80;99.90
32187;DHT22;18686;53.084;8.872;2023-01-13T11:08:24;7.80;99.90
32187;DHT22;18686;53.084;8.872;2023-01-13T11:10:54;7.80;99.90
32187;DHT22;18686;53.084;8.872;2023-01-13T11:13:28;8.10;99.90
32187;DHT22;18686;53.084;8.872;2023-01-13T11:16:02;8.40;99.90
32187;DHT22;18686;53.084;8.872;2023-01-13T11:18:39;8.50;99.90
32187;DHT22;18686;53.084;8.872;2023-01-13T11:21:16;8.40;99.90
32187;DHT22;18686;53.084;8.872;2023-01-13T11:23:55;8.20;99.90
32187;DHT22;18686;53.084;8.872;2023-01-13T11:26:40;8.10;99.90
32187;DHT22;18686;53.084;8.872;2023-01-13T11:29:14;8.10;99.90
32187;DHT22;18686;53.084;8.872;2023-01-13T11:31:47;8.00;99.90
32187;DHT22;18686;53.084;8.872;2023-01-13T11:34:25;7.90;99.90
32187;DHT22;18686;53.084;8.872;2023-01-13T11:36:58;7.90;99.90
32187;DHT22;18686;53.084;8.872;2023-01-13T11:39:41;7.90;99.90
32187;DHT22;18686;53.084;8.872;2023-01-13T11:42:17;7.90;99.90
32187;DHT22;18686;53.084;8.872;2023-01-13T11:44:52;8.00;99.90
32187;DHT22;18686;53.084;8.872;2023-01-13T11:47:24;7.90;99.90
32187;DHT22;18686;53.084;8.872;2023-01-13T11:49:53;7.90;99.90
32187;DHT22;18686;53.084;8.872;2023-01-13T11:52:27;7.90;99.90
32187;DHT22;18686;53.084;8.872;2023-01-13T11:55:22;7.90;99.90
32187;DHT22;18686;53.084;8.872;2023-01-13T11:57:59;7.90;99.90
32187;DHT22;18686;53.084;8.872;2023-01-13T12:00:38;7.90;99.90
32187;DHT22;18686;53.084;8.872;2023-01-13T12:03:20;7.90;99.90
32187;DHT22;18686;53.084;8.872;2023-01-13T12:06:14;7.90;99.90
32187;DHT22;18686;53.084;8.872;2023-01-13T12:08:59;8.00;99.90
32187;DHT22;18686;53.084;8.872;2023-01-13T12:11:35;8.00;99.90
32187;DHT22;18686;53.084;8.872;2023-01-13T12:14:32;8.00;99.90
32187;DHT22;18686;53.084;8.872;2023-01-13T12:17:07;8.10;99.90
32187;DHT22;18686;53.084;8.872;2023-01-13T12:19:42;8.10;99.90
32187;DHT22;18686;53.084;8.872;2023-01-13T12:22:20;8.10;99.90
32187;DHT22;18686;53.084;8.872;2023-01-13T12:24:54;8.10;99.90
32187;DHT22;18686;53.084;8.872;2023-01-13T12:27:33;8.10;99.90
32187;DHT22;18686;53.084;8.872;2023-01-13T12:30:18;8.00;99.90
32187;DHT22;18686;53.084;8.872;2023-01-13T12:32:50;8.00;99.90
32187;DHT22;18686;53.084;8.872;2023-01-13T12:35:30;8.00;99.90
32187;DHT22;18686;53.084;8.872;2023-01-13T12:38:05;8.00;99.90
32187;DHT22;18686;53.084;8.872;2023-01-13T12:40:43;8.00;99.90
32187;DHT22;18686;53.084;8.872;2023-01-13T12:43:17;8.00;99.90
32187;DHT22;18686;53.084;8.872;2023-01-13T12:46:44;8.10;99.90
32187;DHT22;18686;53.084;8.872;2023-01-13T12:49:21;8.10;99.90
32187;DHT22;18686;53.084;8.872;2023-01-13T12:52:12;8.30;99.90
32187;DHT22;18686;53.084;8.872;2023-01-13T12:55:00;8.30;99.90
32187;DHT22;18686;53.084;8.872;2023-01-13T12:57:31;8.30;99.90
32187;DHT22;18686;53.084;8.872;2023-01-13T13:00:16;8.30;99.90
32187;DHT22;18686;53.084;8.872;2023-01-13T13:03:19;8.30;99.90
32187;DHT22;18686;53.084;8.872;2023-01-13T13:05:59;8.30;99.90
32187;DHT22;18686;53.084;8.872;2023-01-13T13:08:45;8.30;99.90
32187;DHT22;18686;53.084;8.872;2023-01-13T13:11:22;8.30;99.90
32187;DHT22;18686;53.084;8.872;2023-01-13T13:17:43;8.30;99.90
32187;DHT22;18686;53.084;8.872;2023-01-13T13:23:43;8.40;99.90
32187;DHT22;18686;53.084;8.872;2023-01-13T13:26:27;8.50;99.90
32187;DHT22;18686;53.084;8.872;2023-01-13T13:29:22;8.60;99.90
32187;DHT22;18686;53.084;8.872;2023-01-13T13:31:56;8.60;99.90
32187;DHT22;18686;53.084;8.872;2023-01-13T13:34:32;8.70;99.90
32187;DHT22;18686;53.084;8.872;2023-01-13T13:37:19;8.70;99.90
32187;DHT22;18686;53.084;8.872;2023-01-13T13:39:55;8.60;99.90
32187;DHT22;18686;53.084;8.872;2023-01-13T13:42:43;8.60;99.90
32187;DHT22;18686;53.084;8.872;2023-01-13T13:45:29;8.60;99.90
32187;DHT22;18686;53.084;8.872;2023-01-13T13:48:21;8.60;99.90
32187;DHT22;18686;53.084;8.872;2023-01-13T13:50:52;8.50;99.90
32187;DHT22;18686;53.084;8.872;2023-01-13T13:53:25;8.40;99.90
32187;DHT22;18686;53.084;8.872;2023-01-13T13:55:56;8.40;99.90
32187;DHT22;18686;53.084;8.872;2023-01-13T13:58:26;8.40;99.90
32187;DHT22;18686;53.084;8.872;2023-01-13T14:00:56;8.30;99.90
32187;DHT22;18686;53.084;8.872;2023-01-13T14:03:28;8.30;99.90
32187;DHT22;18686;53.084;8.872;2023-01-13T14:05:59;8.30;99.90
32187;DHT22;18686;53.084;8.872;2023-01-13T14:08:30;8.30;99.90
32187;DHT22;18686;53.084;8.872;2023-01-13T14:10:59;8.20;99.90
32187;DHT22;18686;53.084;8.872;2023-01-13T14:13:30;8.20;99.90
32187;DHT22;18686;53.084;8.872;2023-01-13T14:16:00;8.30;99.90
32187;DHT22;18686;53.084;8.872;2023-01-13T14:18:31;8.20;99.90
32187;DHT22;18686;53.084;8.872;2023-01-13T14:21:04;8.30;99.90
32187;DHT22;18686;53.084;8.872;2023-01-13T14:23:49;8.30;99.90
32187;DHT22;18686;53.084;8.872;2023-01-13T14:26:23;8.30;99.90
32187;DHT22;18686;53.084;8.872;2023-01-13T14:28:52;8.40;99.90
32187;DHT22;18686;53.084;8.872;2023-01-13T14:31:21;8.30;99.90
32187;DHT22;18686;53.084;8.872;2023-01-13T14:33:51;8.30;99.90
32187;DHT22;18686;53.084;8.872;2023-01-13T14:36:23;8.40;99.90
32187;DHT22;18686;53.084;8.872;2023-01-13T14:39:22;8.40;99.90
32187;DHT22;18686;53.084;8.872;2023-01-13T14:41:50;8.40;99.90
32187;DHT22;18686;53.084;8.872;2023-01-13T14:44:22;8.40;99.90
32187;DHT22;18686;53.084;8.872;2023-01-13T14:46:53;8.40;99.90
32187;DHT22;18686;53.084;8.872;2023-01-13T14:49:25;8.40;99.90
32187;DHT22;18686;53.084;8.872;2023-01-13T14:52:05;8.40;99.90
32187;DHT22;18686;53.084;8.872;2023-01-13T14:54:45;8.50;99.90
32187;DHT22;18686;53.084;8.872;2023-01-13T14:57:23;8.40;99.90
32187;DHT22;18686;53.084;8.872;2023-01-13T15:00:05;8.40;99.90
32187;DHT22;18686;53.084;8.872;2023-01-13T15:02:46;8.40;99.90
32187;DHT22;18686;53.084;8.872;2023-01-13T15:05:48;8.40;99.90
32187;DHT22;18686;53.084;8.872;2023-01-13T15:08:30;8.40;99.90
32187;DHT22;18686;53.084;8.872;2023-01-13T15:11:01;8.40;99.90
32187;DHT22;18686;53.084;8.872;2023-01-13T15:13:35;8.40;99.90
32187;DHT22;18686;53.084;8.872;2023-01-13T15:16:13;8.40;99.90
32187;DHT22;18686;53.084;8.872;2023-01-13T15:18:42;8.40;99.90
32187;DHT22;18686;53.084;8.872;2023-01-13T15:21:10;8.40;99.90
32187;DHT22;18686;53.084;8.872;2023-01-13T15:23:40;8.40;99.90
32187;DHT22;18686;53.084;8.872;2023-01-13T15:26:17;8.30;99.90
32187;DHT22;18686;53.084;8.872;2023-01-13T15:28:46;8.30;99.90
32187;DHT22;18686;53.084;8.872;2023-01-13T15:31:14;8.20;99.90
32187;DHT22;18686;53.084;8.872;2023-01-13T15:33:43;8.10;99.90
32187;DHT22;18686;53.084;8.872;2023-01-13T15:36:21;8.00;99.90
32187;DHT22;18686;53.084;8.872;2023-01-13T15:38:52;7.90;99.90
32187;DHT22;18686;53.084;8.872;2023-01-13T15:41:20;7.90;99.90
32187;DHT22;18686;53.084;8.872;2023-01-13T15:44:09;7.80;99.90
32187;DHT22;18686;53.084;8.872;2023-01-13T15:46:56;7.80;99.90
32187;DHT22;18686;53.084;8.872;2023-01-13T15:49:27;7.80;99.90
32187;DHT22;18686;53.084;8.872;2023-01-13T15:52:01;7.80;99.90
32187;DHT22;18686;53.084;8.872;2023-01-13T15:54:31;7.80;99.90
32187;DHT22;18686;53.084;8.872;2023-01-13T15:57:00;7.80;99.90
32187;DHT22;18686;53.084;8.872;2023-01-13T15:59:28;7.70;99.90
32187;DHT22;18686;53.084;8.872;2023-01-13T16:01:56;7.70;99.90
32187;DHT22;18686;53.084;8.872;2023-01-13T16:04:24;7.70;99.90
32187;DHT22;18686;53.084;8.872;2023-01-13T16:06:53;7.70;99.90
32187;DHT22;18686;53.084;8.872;2023-01-13T16:09:21;7.70;99.90
32187;DHT22;18686;53.084;8.872;2023-01-13T16:11:51;7.70;99.90
32187;DHT22;18686;53.084;8.872;2023-01-13T16:14:19;7.80;99.90
32187;DHT22;18686;53.084;8.872;2023-01-13T16:16:47;7.90;99.90
32187;DHT22;18686;53.084;8.872;2023-01-13T16:19:17;7.90;99.90
32187;DHT22;18686;53.084;8.872;2023-01-13T16:21:46;8.00;99.90
32187;DHT22;18686;53.084;8.872;2023-01-13T16:24:14;8.10;99.90
32187;DHT22;18686;53.084;8.872;2023-01-13T16:26:42;8.10;99.90
32187;DHT22;18686;53.084;8.872;2023-01-13T16:29:11;8.20;99.90
32187;DHT22;18686;53.084;8.872;2023-01-13T16:31:39;8.20;99.90
32187;DHT22;18686;53.084;8.872;2023-01-13T16:34:08;8.20;99.90
32187;DHT22;18686;53.084;8.872;2023-01-13T16:36:36;8.30;99.90